createdAt,value
2022-12-28T00:04:04.084Z,79.25
2022-12-28T00:09:06.041Z,78.53
2022-12-28T00:14:07.992Z,77.43
2022-12-28T00:19:14.766Z,77.02
2022-12-28T00:24:21.326Z,76.85
2022-12-28T00:29:23.124Z,77.15
2022-12-28T00:34:25.060Z,76.92
2022-12-28T00:39:26.750Z,77.05
2022-12-28T00:44:28.750Z,75.23
2022-12-28T00:49:30.398Z,75.42
2022-12-28T00:54:32.077Z,74.97
2022-12-28T00:59:33.781Z,75.12
2022-12-28T01:04:35.432Z,75.73
2022-12-28T01:09:37.073Z,76.02
2022-12-28T01:14:38.743Z,75.29
2022-12-28T01:19:40.366Z,76.16
2022-12-28T01:24:41.995Z,75.46
2022-12-28T01:29:43.826Z,75.88
2022-12-28T01:34:45.474Z,76.39
2022-12-28T01:39:47.179Z,76.17
2022-12-28T01:44:51.364Z,77.21
2022-12-28T01:49:58.519Z,78.04
2022-12-28T01:55:07.469Z,78.62
2022-12-28T02:00:12.093Z,79.19
2022-12-28T02:05:14.304Z,79.28
2022-12-28T02:10:43.455Z,79.85
2022-12-28T02:15:38.396Z,80.89
2022-12-28T02:21:09.444Z,81.17
2022-12-28T02:26:39.252Z,81.83
2022-12-28T02:32:18.540Z,81.79
2022-12-28T02:37:23.587Z,82.61
2022-12-28T02:42:26.453Z,82.75
2022-12-28T02:47:47.286Z,82.57
2022-12-28T02:53:07.153Z,82.69
2022-12-28T02:58:31.139Z,82.36
2022-12-28T03:03:45.362Z,83.59
2022-12-28T03:09:00.740Z,82.84
2022-12-28T03:14:07.571Z,83.23
2022-12-28T03:19:29.878Z,83.28
2022-12-28T03:24:55.680Z,82.02
2022-12-28T03:30:27.746Z,81.59
2022-12-28T03:35:43.086Z,80.80
2022-12-28T03:40:49.691Z,81.05
2022-12-28T03:46:03.011Z,80.91
2022-12-28T03:51:04.801Z,80.81
2022-12-28T03:56:08.689Z,81.33
2022-12-28T04:01:11.847Z,80.35
2022-12-28T04:06:18.115Z,80.33
2022-12-28T04:11:19.979Z,79.82
2022-12-28T04:16:27.032Z,80.44
2022-12-28T04:21:28.725Z,79.97
2022-12-28T04:26:30.887Z,80.05
2022-12-28T04:31:32.700Z,79.85
2022-12-28T04:36:47.313Z,79.33
2022-12-28T04:41:52.727Z,80.19
2022-12-28T04:46:54.420Z,80.24
2022-12-28T04:51:56.135Z,79.73
2022-12-28T04:56:57.770Z,79.56
2022-12-28T05:01:59.946Z,79.08
2022-12-28T05:07:01.690Z,78.51
2022-12-28T05:12:03.466Z,77.83
2022-12-28T05:17:05.659Z,77.34
2022-12-28T05:22:11.985Z,77.66
2022-12-28T05:27:13.661Z,76.71
2022-12-28T05:32:15.342Z,77.17
2022-12-28T05:37:21.790Z,77.67
2022-12-28T05:42:23.854Z,78.12
2022-12-28T05:47:25.498Z,78.06
2022-12-28T05:52:28.908Z,77.53
2022-12-28T05:57:30.527Z,77.50
2022-12-28T06:02:32.702Z,77.91
2022-12-28T06:07:34.432Z,78.06
2022-12-28T06:12:36.150Z,78.26
2022-12-28T06:17:37.983Z,77.75
2022-12-28T06:22:39.647Z,76.71
2022-12-28T06:27:41.276Z,76.95
2022-12-28T06:32:42.997Z,77.48
2022-12-28T06:37:44.743Z,76.60
2022-12-28T06:42:46.403Z,75.87
2022-12-28T06:47:48.015Z,75.45
2022-12-28T06:52:49.647Z,74.39
2022-12-28T06:57:51.316Z,73.64
2022-12-28T07:02:58.147Z,72.96
2022-12-28T07:07:59.797Z,69.45
2022-12-28T07:13:01.410Z,68.45
2022-12-28T07:18:03.073Z,68.29
2022-12-28T07:23:04.779Z,68.14
2022-12-28T07:28:06.422Z,67.16
2022-12-28T07:33:08.050Z,67.25
2022-12-28T07:38:09.658Z,66.66
2022-12-28T07:43:11.301Z,67.57
2022-12-28T07:48:12.927Z,68.01
2022-12-28T07:53:18.764Z,68.09
2022-12-28T07:58:24.061Z,67.75
2022-12-28T08:03:26.145Z,68.53
2022-12-28T08:08:27.887Z,68.91
2022-12-28T08:13:31.891Z,68.37
2022-12-28T08:18:33.943Z,68.95
2022-12-28T08:23:35.577Z,68.44
2022-12-28T08:28:38.097Z,68.21
2022-12-28T08:33:39.803Z,69.00
2022-12-28T08:38:42.882Z,70.13
2022-12-28T08:43:45.659Z,69.04
2022-12-28T08:48:48.354Z,69.09
2022-12-28T08:53:50.725Z,69.21
2022-12-28T08:58:52.440Z,69.58
2022-12-28T09:03:56.590Z,68.94
2022-12-28T09:09:07.051Z,68.90
2022-12-28T09:14:14.478Z,68.96
2022-12-28T09:19:21.397Z,69.43
2022-12-28T09:24:23.463Z,69.92
2022-12-28T09:29:25.103Z,68.57
2022-12-28T09:34:37.327Z,67.99
2022-12-28T09:39:39.952Z,67.28
2022-12-28T09:45:00.605Z,66.75
2022-12-28T09:50:02.208Z,66.16
2022-12-28T09:55:16.046Z,66.02
2022-12-28T10:00:30.491Z,66.01
2022-12-28T10:05:32.146Z,65.81
2022-12-28T10:10:33.863Z,66.16
2022-12-28T10:15:35.546Z,66.29
2022-12-28T10:20:37.329Z,65.89
2022-12-28T10:25:38.936Z,65.94
2022-12-28T10:31:08.211Z,66.24
2022-12-28T10:36:14.177Z,66.00
2022-12-28T10:41:17.134Z,65.66
2022-12-28T10:46:21.168Z,65.14
2022-12-28T10:51:24.924Z,65.29
2022-12-28T10:56:31.209Z,65.61
2022-12-28T11:01:33.022Z,64.99
2022-12-28T11:06:36.750Z,65.76
2022-12-28T11:11:38.592Z,65.26
2022-12-28T11:16:41.038Z,65.08
2022-12-28T11:21:43.828Z,65.36
2022-12-28T11:26:50.343Z,65.66
2022-12-28T11:32:13.180Z,65.48
2022-12-28T11:37:15.295Z,64.92
2022-12-28T11:42:40.715Z,64.74
2022-12-28T11:47:43.064Z,64.96
2022-12-28T11:52:46.649Z,64.71
2022-12-28T11:57:48.321Z,64.05
2022-12-28T12:02:53.915Z,63.88
2022-12-28T12:07:55.563Z,64.42
2022-12-28T12:12:57.746Z,64.44
2022-12-28T12:18:03.894Z,63.31
2022-12-28T12:23:09.283Z,64.87
2022-12-28T12:28:41.070Z,64.57
2022-12-28T12:33:46.237Z,64.53
2022-12-28T12:39:16.750Z,63.73
2022-12-28T12:44:27.432Z,63.88
2022-12-28T12:49:38.101Z,63.34
2022-12-28T12:54:49.157Z,64.28
2022-12-28T13:00:14.019Z,64.34
2022-12-28T13:05:23.721Z,64.26
2022-12-28T13:10:30.955Z,64.37
2022-12-28T13:15:32.912Z,64.37
2022-12-28T13:20:34.622Z,64.17
2022-12-28T13:25:36.779Z,65.01
2022-12-28T13:30:38.586Z,65.20
2022-12-28T13:35:40.285Z,65.41
2022-12-28T13:40:50.312Z,65.43
2022-12-28T13:45:54.804Z,65.68
2022-12-28T13:50:56.809Z,65.02
2022-12-28T13:56:01.701Z,65.43
2022-12-28T14:01:06.552Z,65.88
2022-12-28T14:06:09.248Z,66.12
2022-12-28T14:11:11.002Z,66.31
2022-12-28T14:16:12.775Z,66.12
2022-12-28T14:21:15.091Z,66.55
2022-12-28T14:26:21.505Z,66.06
2022-12-28T14:31:28.291Z,66.61
2022-12-28T14:36:42.657Z,66.70
2022-12-28T14:41:45.978Z,66.89
2022-12-28T14:46:50.783Z,66.10
2022-12-28T14:51:52.391Z,66.09
2022-12-28T14:57:04.926Z,66.94
2022-12-28T15:02:07.007Z,66.53
2022-12-28T15:07:10.433Z,66.96
2022-12-28T15:12:16.169Z,66.90
2022-12-28T15:17:19.795Z,67.64
2022-12-28T15:22:21.503Z,67.43
2022-12-28T15:27:23.198Z,67.51
2022-12-28T15:32:24.789Z,68.01
2022-12-28T15:37:26.490Z,67.76
2022-12-28T15:42:28.107Z,68.13
2022-12-28T15:47:29.808Z,68.53
2022-12-28T15:52:32.153Z,68.02
2022-12-28T15:57:33.804Z,67.86
2022-12-28T16:02:35.733Z,68.22
2022-12-28T16:07:37.521Z,68.37
2022-12-28T16:12:39.232Z,68.50
2022-12-28T16:17:51.183Z,68.31
2022-12-28T16:22:56.903Z,68.38
2022-12-28T16:27:58.561Z,68.60
2022-12-28T16:33:00.221Z,69.21
2022-12-28T16:38:01.839Z,70.22
2022-12-28T16:43:07.250Z,70.40
2022-12-28T16:48:12.720Z,70.62
2022-12-28T16:53:14.463Z,70.94
2022-12-28T16:58:16.169Z,70.91
2022-12-28T17:03:17.811Z,71.73
2022-12-28T17:08:19.565Z,71.35
2022-12-28T17:13:21.237Z,70.73
2022-12-28T17:18:22.915Z,71.12
2022-12-28T17:23:24.892Z,70.95
2022-12-28T17:28:26.562Z,70.92
2022-12-28T17:33:28.213Z,70.78
2022-12-28T17:38:30.973Z,69.66
2022-12-28T17:43:32.593Z,69.92
2022-12-28T17:48:34.287Z,69.63
2022-12-28T17:53:36.328Z,69.39
2022-12-28T17:58:38.297Z,68.85
2022-12-28T18:03:40.082Z,68.66
2022-12-28T18:08:41.850Z,68.95
2022-12-28T18:13:44.047Z,69.40
2022-12-28T18:18:45.874Z,69.06
2022-12-28T18:23:48.320Z,69.48
2022-12-28T18:28:49.983Z,70.07
2022-12-28T18:33:51.671Z,69.77
2022-12-28T18:38:53.310Z,69.77
2022-12-28T18:43:56.976Z,70.02
2022-12-28T18:49:00.512Z,69.71
2022-12-28T18:54:02.127Z,69.79
2022-12-28T18:59:03.781Z,70.25
2022-12-28T19:04:07.742Z,70.34
2022-12-28T19:09:10.945Z,70.22
2022-12-28T19:14:14.671Z,70.37
2022-12-28T19:19:17.616Z,70.88
2022-12-28T19:24:19.758Z,71.68
2022-12-28T19:29:21.372Z,72.02
2022-12-28T19:34:23.087Z,72.37
2022-12-28T19:39:24.738Z,72.40
2022-12-28T19:44:26.375Z,72.64
2022-12-28T19:49:28.037Z,72.55
2022-12-28T19:54:29.704Z,72.34
2022-12-28T19:59:31.397Z,72.96
2022-12-28T20:04:33.024Z,72.94
2022-12-28T20:09:35.051Z,73.31
2022-12-28T20:14:36.705Z,72.83
2022-12-28T20:19:38.596Z,72.80
2022-12-28T20:24:40.291Z,73.35
2022-12-28T20:29:41.934Z,73.68
2022-12-28T20:34:43.557Z,73.64
2022-12-28T20:39:45.197Z,73.87
2022-12-28T20:44:46.979Z,73.58
2022-12-28T20:49:48.632Z,73.76
2022-12-28T20:54:50.353Z,73.46
2022-12-28T20:59:53.347Z,74.45
2022-12-28T21:04:55.001Z,75.05
2022-12-28T21:09:56.938Z,74.86
2022-12-28T21:14:58.592Z,75.20
2022-12-28T21:20:00.231Z,74.78
2022-12-28T21:25:01.888Z,74.40
2022-12-28T21:30:03.845Z,74.67
2022-12-28T21:35:05.790Z,74.58
2022-12-28T21:40:09.107Z,74.70
2022-12-28T21:45:11.231Z,74.09
2022-12-28T21:50:13.212Z,75.23
2022-12-28T21:55:33.454Z,75.84
2022-12-28T22:00:54.011Z,75.66
2022-12-28T22:06:02.666Z,76.15
2022-12-28T22:11:23.067Z,76.01
2022-12-28T22:16:24.801Z,76.06
2022-12-28T22:21:27.627Z,75.54
2022-12-28T22:26:29.276Z,75.39
2022-12-28T22:31:30.950Z,74.90
2022-12-28T22:36:32.777Z,74.13
2022-12-28T22:41:34.402Z,73.83
2022-12-28T22:46:36.056Z,73.65
2022-12-28T22:51:37.733Z,73.65
2022-12-28T22:56:39.350Z,73.61
2022-12-28T23:01:41.558Z,72.70
2022-12-28T23:06:43.308Z,70.66
2022-12-28T23:11:45.061Z,68.06
2022-12-28T23:16:47.383Z,66.16
2022-12-28T23:22:07.667Z,65.70
2022-12-28T23:27:21.978Z,64.82
2022-12-28T23:32:23.678Z,64.37
2022-12-28T23:37:25.415Z,64.51
2022-12-28T23:42:27.226Z,64.39
2022-12-28T23:47:28.944Z,64.03
2022-12-28T23:52:31.039Z,64.27
2022-12-28T23:57:32.663Z,64.40
